Flight Track Log - Related Links

Times and Time Zones

All times are in EDT time to prevent confusion due to time zone crossing. See the N146GS flight status page for this flight to view local times or setup timezone preferences in your user account.

Time Position Orientation Groundspeed Altitude Reporting Facility
EDT Latitude Longitude Course Direction KTS MPH feet Rate Location/Type
Fri 04:35:00 PM 33.8352 -81.8275 329° Northwest  Level FlightAware Approximate
Fri 04:36:00 PM 33.8686 -81.8519 320° Northwest  Level FlightAware Approximate
Fri 04:37:00 PM 33.8998 -81.8801 326° Northwest  Level FlightAware Approximate
Fri 04:38:00 PM 33.9322 -81.9066 326° Northwest  Level FlightAware Approximate
Fri 04:39:00 PM 33.9646 -81.9331 326° Northwest  Level FlightAware Approximate
Fri 04:40:00 PM 33.9970 -81.9595 326° Northwest  Level FlightAware Approximate
Fri 04:41:00 PM 34.0293 -81.9861 326° Northwest  Level FlightAware Approximate
Fri 04:42:00 PM 34.0617 -82.0126 326° Northwest  Level FlightAware Approximate
Fri 04:43:00 PM 34.0950 -82.0372 329° Northwest  Level FlightAware Approximate
Fri 04:44:00 PM 34.1286 -82.0616 329° Northwest  Level FlightAware Approximate
Fri 04:45:00 PM 34.1621 -82.0860 329° Northwest  Level FlightAware Approximate
Fri 04:46:00 PM 34.1956 -82.1104 329° Northwest  Level FlightAware Approximate
Fri 04:47:00 PM 34.2291 -82.1348 329° Northwest  Level FlightAware Approximate
Fri 04:48:00 PM 34.2643 -82.1543 346° North  Level FlightAware Approximate
Fri 04:49:00 PM 34.3023 -82.1657 346° North  Level FlightAware Approximate
Fri 04:50:00 PM 34.3402 -82.1770 346° North  Level FlightAware Approximate
Fri 04:51:00 PM 34.3782 -82.1885 346° North  Level FlightAware Approximate
Fri 04:52:00 PM 34.4162 -82.1999 346° North  Level FlightAware Approximate
Fri 04:53:00 PM 34.4539 -82.2124 345° North  Level FlightAware Approximate
Fri 04:54:00 PM 34.4914 -82.2259 343° North  Level FlightAware Approximate
Fri 04:55:00 PM 34.5288 -82.2399 343° North  Level FlightAware Approximate
Fri 04:56:00 PM 34.5662 -82.2540 343° North  Level FlightAware Approximate
Fri 04:57:00 PM 34.6037 -82.2667 North  Level FlightAware Approximate
Fri 04:58:00 PM 34.6419 -82.2751 345° North  Level FlightAware Approximate
Fri 04:59:00 PM 34.6796 -82.2876 345° North  Level FlightAware Approximate
Fri 05:00:00 PM 34.7174 -82.3002 345° North  Level FlightAware Approximate
Fri 05:01:00 PM 34.7551 -82.3128 345° North  Level FlightAware Approximate
Fri 05:02:00 PM 34.7928 -82.3254 345° North  Level FlightAware Approximate
Fri 05:03:00 PM 34.8278 -82.3445 321° Northwest  Level FlightAware Approximate
Fri 05:04:00 PM 34.8333 -82.3500 321° Northwest  Level FlightAware Approximate
Fri 05:05:00 PM 34.8479 -82.3500 321° Northwest  Level Estimated
Fri 05:06:00 PM 34.8479 -82.3500 321° Northwest  Level Estimated
Fri 05:07:00 PM 34.8479 -82.3500 321° Northwest  Level Estimated

Login

Don't have an account? Register now (free) for customized features, flight alerts, and more!